LTAG

Incirlik Air Base

Airport
ICAO code
LTAG
IATA Code
UAB
Summary
ICAO Region
EUR
ICAO Territory
Location

Incirlik, Adana

Serving
Adana
Elevation
240 ft
Coordinates
37° 0' 7" N , 35° 25' 33" E
Airport GND
Foreign Object Debris
Metar
LTAG 280450Z 30003KT CAVOK 07/02 Q1022 NOSIG

Incirlik Air Base is a United States Air Force base, located near İncirlik, Turkey. Incirlik Air Base is located 8 km east of Adana, Turkey.

Runways

Designator Length Width Surface Rops
5/23 3048 45 CON Yes/Yes

Airport map

Aerial View

SKYbrary Partners:

Safety knowledge contributed by: